Time,TemperatureF,DewpointF,PressureIn,WindDirection,WindDirectionDegrees,WindSpeedMPH,WindSpeedGustMPH,Humidity,HourlyPrecipIn,Conditions,Clouds,dailyrainin,SoftwareType,DateUTC
2013-05-07 00:00:00,61.5,45.0,29.99,ESE,105,0.0,0.0,56,0.00,,,0.00,weatherlink.com 1.10,2013-05-07 05:00:00,
2013-05-07 00:15:00,62.1,45.0,29.99,ESE,114,0.0,1.0,54,0.00,,,0.00,weatherlink.com 1.10,2013-05-07 05:15:00,
2013-05-07 00:30:00,61.9,45.0,29.99,SE,135,0.0,1.0,54,0.00,,,0.00,weatherlink.com 1.10,2013-05-07 05:30:00,
2013-05-07 00:45:00,61.6,45.0,29.99,SE,132,0.0,1.0,55,0.00,,,0.00,weatherlink.com 1.10,2013-05-07 05:45:00,
2013-05-07 01:00:00,60.8,45.0,29.99,SE,132,0.0,0.0,56,0.00,,,0.00,weatherlink.com 1.10,2013-05-07 06:00:00,
2013-05-07 01:16:00,60.5,45.0,29.99,SE,132,0.0,0.0,56,0.00,,,0.00,weatherlink.com 1.10,2013-05-07 06:16:00,
2013-05-07 01:31:00,60.4,45.0,29.99,SE,132,0.0,0.0,57,0.00,,,0.00,weatherlink.com 1.10,2013-05-07 06:31:00,
2013-05-07 01:46:00,59.9,46.0,29.99,SE,133,0.0,0.0,61,0.00,,,0.00,weatherlink.com 1.10,2013-05-07 06:46:00,
2013-05-07 02:01:00,59.6,46.0,29.99,SE,132,0.0,0.0,62,0.00,,,0.00,weatherlink.com 1.10,2013-05-07 07:01:00,
2013-05-07 02:16:00,59.6,44.0,29.98,SE,132,0.0,0.0,57,0.00,,,0.00,weatherlink.com 1.10,2013-05-07 07:16:00,
2013-05-07 02:31:00,59.2,43.0,29.98,SE,132,0.0,0.0,56,0.00,,,0.00,weatherlink.com 1.10,2013-05-07 07:31:00,
2013-05-07 02:46:00,58.0,43.0,29.98,SE,132,0.0,0.0,58,0.00,,,0.00,weatherlink.com 1.10,2013-05-07 07:46:00,
2013-05-07 03:01:00,58.0,44.0,29.98,SE,132,0.0,0.0,59,0.00,,,0.00,weatherlink.com 1.10,2013-05-07 08:01:00,
2013-05-07 03:16:00,56.8,43.0,29.98,SE,132,0.0,0.0,60,0.00,,,0.00,weatherlink.com 1.10,2013-05-07 08:16:00,
2013-05-07 03:31:00,55.9,42.0,29.99,SE,132,0.0,0.0,60,0.00,,,0.00,weatherlink.com 1.10,2013-05-07 08:31:00,
2013-05-07 03:46:00,55.7,42.0,29.99,SE,133,0.0,0.0,61,0.00,,,0.00,weatherlink.com 1.10,2013-05-07 08:46:00,
2013-05-07 04:01:00,54.8,42.0,29.99,SE,132,0.0,0.0,63,0.00,,,0.00,weatherlink.com 1.10,2013-05-07 09:01:00,
2013-05-07 04:16:00,54.5,42.0,29.99,SE,132,0.0,0.0,62,0.00,,,0.00,weatherlink.com 1.10,2013-05-07 09:16:00,
2013-05-07 04:31:00,54.7,42.0,29.99,SE,132,0.0,0.0,62,0.00,,,0.00,weatherlink.com 1.10,2013-05-07 09:31:00,
2013-05-07 04:46:00,53.7,42.0,29.99,SE,132,0.0,0.0,65,0.00,,,0.00,weatherlink.com 1.10,2013-05-07 09:46:00,
2013-05-07 05:01:00,52.1,43.0,30.00,SE,132,0.0,0.0,72,0.00,,,0.00,weatherlink.com 1.10,2013-05-07 10:01:00,
2013-05-07 05:16:00,50.9,43.0,30.00,SE,133,0.0,0.0,75,0.00,,,0.00,weatherlink.com 1.10,2013-05-07 10:16:00,
2013-05-07 05:31:00,50.7,43.0,30.00,SE,132,0.0,0.0,74,0.00,,,0.00,weatherlink.com 1.10,2013-05-07 10:31:00,
2013-05-07 05:46:00,49.4,42.0,30.00,SE,133,0.0,0.0,76,0.00,,,0.00,weatherlink.com 1.10,2013-05-07 10:46:00,
2013-05-07 06:01:00,50.4,43.0,30.00,SE,132,0.0,0.0,77,0.00,,,0.00,weatherlink.com 1.10,2013-05-07 11:01:00,
2013-05-07 06:16:00,49.0,42.0,30.01,SE,133,0.0,0.0,78,0.00,,,0.00,weatherlink.com 1.10,2013-05-07 11:16:00,
2013-05-07 06:31:00,49.9,43.0,30.01,SE,132,0.0,0.0,76,0.00,,,0.00,weatherlink.com 1.10,2013-05-07 11:31:00,
2013-05-07 06:46:00,50.6,44.0,30.02,SE,132,0.0,0.0,79,0.00,,,0.00,weatherlink.com 1.10,2013-05-07 11:46:00,
2013-05-07 07:01:00,51.7,46.0,30.02,SE,132,0.0,0.0,80,0.00,,,0.00,weatherlink.com 1.10,2013-05-07 12:01:00,
2013-05-07 07:16:00,53.0,47.0,30.02,SE,132,0.0,0.0,81,0.00,,,0.00,weatherlink.com 1.10,2013-05-07 12:16:00,
2013-05-07 07:31:00,54.2,46.0,30.02,SE,132,0.0,0.0,73,0.00,,,0.00,weatherlink.com 1.10,2013-05-07 12:31:00,
2013-05-07 07:46:00,58.1,46.0,30.03,SE,131,0.0,1.0,64,0.00,,,0.00,weatherlink.com 1.10,2013-05-07 12:46:00,
2013-05-07 08:01:00,62.2,46.0,30.03,ESE,114,0.0,1.0,56,0.00,,,0.00,weatherlink.com 1.10,2013-05-07 13:01:00,
2013-05-07 08:17:00,63.6,46.0,30.03,SE,129,2.0,4.0,54,0.00,,,0.00,weatherlink.com 1.10,2013-05-07 13:17:00,
2013-05-07 08:32:00,65.0,45.0,30.03,ESE,112,0.0,2.0,49,0.00,,,0.00,weatherlink.com 1.10,2013-05-07 13:32:00,
2013-05-07 08:47:00,65.8,45.0,30.03,ENE,64,1.0,2.0,48,0.00,,,0.00,weatherlink.com 1.10,2013-05-07 13:47:00,
2013-05-07 09:02:00,67.0,45.0,30.04,SE,141,2.0,4.0,45,0.00,,,0.00,weatherlink.com 1.10,2013-05-07 14:02:00,
2013-05-07 09:17:00,68.1,44.0,30.04,NNE,30,0.0,2.0,42,0.00,,,0.00,weatherlink.com 1.10,2013-05-07 14:17:00,
2013-05-07 09:32:00,69.8,45.0,30.04,East,101,0.0,2.0,41,0.00,,,0.00,weatherlink.com 1.10,2013-05-07 14:32:00,
2013-05-07 09:47:00,70.0,45.0,30.03,SE,129,1.0,2.0,41,0.00,,,0.00,weatherlink.com 1.10,2013-05-07 14:47:00,
2013-05-07 10:02:00,71.5,46.0,30.03,NE,39,1.0,2.0,41,0.00,,,0.00,weatherlink.com 1.10,2013-05-07 15:02:00,
2013-05-07 10:17:00,72.2,46.0,30.03,SE,124,0.0,1.0,39,0.00,,,0.00,weatherlink.com 1.10,2013-05-07 15:17:00,
2013-05-07 10:32:00,73.1,50.0,30.03,West,281,2.0,5.0,45,0.00,,,0.00,weatherlink.com 1.10,2013-05-07 15:32:00,
2013-05-07 10:47:00,73.4,44.0,30.03,ESE,110,2.0,4.0,35,0.00,,,0.00,weatherlink.com 1.10,2013-05-07 15:47:00,
2013-05-07 11:02:00,74.1,46.0,30.03,NE,34,1.0,2.0,37,0.00,,,0.00,weatherlink.com 1.10,2013-05-07 16:02:00,
2013-05-07 11:17:00,75.0,46.0,30.03,SE,129,2.0,6.0,36,0.00,,,0.00,weatherlink.com 1.10,2013-05-07 16:17:00,
2013-05-07 11:32:00,75.1,45.0,30.03,SE,126,0.0,5.0,34,0.00,,,0.00,weatherlink.com 1.10,2013-05-07 16:32:00,
2013-05-07 11:47:00,75.4,42.0,30.02,SSE,155,3.0,3.0,30,0.00,,,0.00,weatherlink.com 1.10,2013-05-07 16:47:00,
2013-05-07 12:02:00,76.6,45.0,30.02,North,11,0.0,4.0,32,0.00,,,0.00,weatherlink.com 1.10,2013-05-07 17:02:00,
2013-05-07 12:17:00,77.2,44.0,30.01,NNE,27,1.0,2.0,31,0.00,,,0.00,weatherlink.com 1.10,2013-05-07 17:17:00,
2013-05-07 12:32:00,76.8,46.0,30.01,SSE,149,3.0,5.0,33,0.00,,,0.00,weatherlink.com 1.10,2013-05-07 17:32:00,
2013-05-07 12:47:00,77.2,47.0,30.00,SSE,158,4.0,5.0,34,0.00,,,0.00,weatherlink.com 1.10,2013-05-07 17:47:00,
2013-05-07 13:02:00,77.1,49.0,30.00,West,267,3.0,4.0,37,0.00,,,0.00,weatherlink.com 1.10,2013-05-07 18:02:00,
2013-05-07 13:17:00,78.2,45.0,30.00,ESE,105,1.0,3.0,31,0.00,,,0.00,weatherlink.com 1.10,2013-05-07 18:17:00,
2013-05-07 13:32:00,78.8,41.0,30.00,SSE,165,3.0,5.0,26,0.00,,,0.00,weatherlink.com 1.10,2013-05-07 18:32:00,
2013-05-07 13:47:00,78.6,45.0,29.99,ESE,105,1.0,6.0,30,0.00,,,0.00,weatherlink.com 1.10,2013-05-07 18:47:00,
2013-05-07 14:02:00,78.3,43.0,29.99,SE,143,3.0,7.0,28,0.00,,,0.00,weatherlink.com 1.10,2013-05-07 19:02:00,
2013-05-07 14:32:00,79.8,44.0,29.98,NNE,18,0.0,5.0,28,0.00,,,0.00,weatherlink.com 1.10,2013-05-07 19:32:00,
2013-05-07 14:48:00,79.9,41.0,29.98,WNW,287,0.0,4.0,25,0.00,,,0.00,weatherlink.com 1.10,2013-05-07 19:48:00,
2013-05-07 15:03:00,80.1,51.0,29.98,North,356,1.0,2.0,37,0.00,,,0.00,weatherlink.com 1.10,2013-05-07 20:03:00,
2013-05-07 15:18:00,79.6,44.0,29.97,NNW,344,1.0,2.0,28,0.00,,,0.00,weatherlink.com 1.10,2013-05-07 20:18:00,
2013-05-07 15:33:00,79.6,41.0,29.97,West,281,2.0,3.0,25,0.00,,,0.00,weatherlink.com 1.10,2013-05-07 20:33:00,
2013-05-07 15:48:00,79.6,44.0,29.96,ESE,120,1.0,3.0,28,0.00,,,0.00,weatherlink.com 1.10,2013-05-07 20:48:00,
2013-05-07 16:03:00,80.8,45.0,29.96,ENE,75,0.0,3.0,28,0.00,,,0.00,weatherlink.com 1.10,2013-05-07 21:03:00,
2013-05-07 16:18:00,80.5,45.0,29.96,SE,130,2.0,5.0,29,0.00,,,0.00,weatherlink.com 1.10,2013-05-07 21:18:00,
2013-05-07 16:33:00,80.2,44.0,29.95,West,267,0.0,4.0,28,0.00,,,0.00,weatherlink.com 1.10,2013-05-07 21:33:00,
2013-05-07 16:48:00,80.8,43.0,29.95,WSW,242,0.0,6.0,26,0.00,,,0.00,weatherlink.com 1.10,2013-05-07 21:48:00,
2013-05-07 17:03:00,81.5,41.0,29.95,WNW,283,0.0,3.0,24,0.00,,,0.00,weatherlink.com 1.10,2013-05-07 22:03:00,
2013-05-07 17:18:00,81.9,43.0,29.95,NW,319,0.0,1.0,25,0.00,,,0.00,weatherlink.com 1.10,2013-05-07 22:18:00,
2013-05-07 17:33:00,81.6,41.0,29.95,SSW,197,1.0,2.0,24,0.00,,,0.00,weatherlink.com 1.10,2013-05-07 22:33:00,
2013-05-07 17:48:00,81.4,41.0,29.95,NW,313,1.0,2.0,24,0.00,,,0.00,weatherlink.com 1.10,2013-05-07 22:48:00,
2013-05-07 18:03:00,80.7,43.0,29.95,West,274,0.0,2.0,26,0.00,,,0.00,weatherlink.com 1.10,2013-05-07 23:03:00,
2013-05-07 18:18:00,81.2,48.0,29.95,West,277,0.0,0.0,31,0.00,,,0.00,weatherlink.com 1.10,2013-05-07 23:18:00,
2013-05-07 18:33:00,80.9,46.0,29.95,East,99,0.0,1.0,29,0.00,,,0.00,weatherlink.com 1.10,2013-05-07 23:33:00,
2013-05-07 18:48:00,81.0,42.0,29.95,NE,39,0.0,1.0,25,0.00,,,0.00,weatherlink.com 1.10,2013-05-07 23:48:00,
2013-05-07 19:03:00,81.0,43.0,29.95,NE,39,0.0,0.0,26,0.00,,,0.00,weatherlink.com 1.10,2013-05-08 00:03:00,
2013-05-07 19:18:00,78.8,44.0,29.95,NE,40,0.0,0.0,29,0.00,,,0.00,weatherlink.com 1.10,2013-05-08 00:18:00,
2013-05-07 19:33:00,76.0,44.0,29.95,NE,40,0.0,0.0,32,0.00,,,0.00,weatherlink.com 1.10,2013-05-08 00:33:00,
2013-05-07 19:48:00,72.6,44.0,29.95,NE,40,0.0,0.0,36,0.00,,,0.00,weatherlink.com 1.10,2013-05-08 00:48:00,
2013-05-07 20:03:00,69.8,46.0,29.96,NE,39,0.0,0.0,42,0.00,,,0.00,weatherlink.com 1.10,2013-05-08 01:03:00,
2013-05-07 20:18:00,68.3,45.0,29.96,NE,40,0.0,0.0,43,0.00,,,0.00,weatherlink.com 1.10,2013-05-08 01:18:00,
2013-05-07 20:33:00,66.9,46.0,29.96,NE,40,0.0,0.0,47,0.00,,,0.00,weatherlink.com 1.10,2013-05-08 01:33:00,
2013-05-07 20:48:00,64.9,45.0,29.96,NE,39,0.0,0.0,49,0.00,,,0.00,weatherlink.com 1.10,2013-05-08 01:48:00,
2013-05-07 21:03:00,63.4,45.0,29.97,NE,39,0.0,0.0,51,0.00,,,0.00,weatherlink.com 1.10,2013-05-08 02:03:00,
2013-05-07 21:18:00,61.7,45.0,29.97,NE,40,0.0,0.0,54,0.00,,,0.00,weatherlink.com 1.10,2013-05-08 02:18:00,
2013-05-07 21:33:00,60.7,48.0,29.98,NE,40,0.0,0.0,63,0.00,,,0.00,weatherlink.com 1.10,2013-05-08 02:33:00,
2013-05-07 21:48:00,59.8,47.0,29.98,NE,40,0.0,0.0,64,0.00,,,0.00,weatherlink.com 1.10,2013-05-08 02:48:00,
2013-05-07 22:03:00,60.1,46.0,29.98,NE,40,0.0,0.0,61,0.00,,,0.00,weatherlink.com 1.10,2013-05-08 03:03:00,
2013-05-07 22:18:00,59.1,44.0,29.98,NE,40,0.0,0.0,58,0.00,,,0.00,weatherlink.com 1.10,2013-05-08 03:18:00,
2013-05-07 22:33:00,59.1,45.0,29.98,NE,40,0.0,0.0,59,0.00,,,0.00,weatherlink.com 1.10,2013-05-08 03:33:00,
2013-05-07 22:48:00,59.0,45.0,29.97,NE,40,0.0,0.0,60,0.00,,,0.00,weatherlink.com 1.10,2013-05-08 03:48:00,
2013-05-07 23:03:00,59.6,48.0,29.97,NE,40,0.0,0.0,65,0.00,,,0.00,weatherlink.com 1.10,2013-05-08 04:03:00,
2013-05-07 23:18:00,59.0,44.0,29.97,NE,40,0.0,0.0,58,0.00,,,0.00,weatherlink.com 1.10,2013-05-08 04:18:00,
2013-05-07 23:33:00,57.5,44.0,29.97,NE,40,0.0,0.0,62,0.00,,,0.00,weatherlink.com 1.10,2013-05-08 04:33:00,
2013-05-07 23:48:00,56.7,44.0,29.97,NE,40,0.0,0.0,62,0.00,,,0.00,weatherlink.com 1.10,2013-05-08 04:48:00,